»·PEaware :: N181DJ KSNA-KSMO

N181DJ :: KSNA-KSMO

FLIGHT INFORMATION

Flight Status: Arrived
Operator: Privately registered:
United States
More flights under this callsign
Pilot: Brian H. (29287)
Aircraft: PIPER PA-28 CHEROKEE ARCHER
(PA28)
More flights by this aircraft type
Origin: KSNA John Wayne-Orange Co
United States
Destination: KSMO Santa Monica Mun
United States
More flights between these airports :: More routes between these airports
Route: SLI V8 POXKU V363 BAYJY V186 DARTS
File this flight plan on PilotEdge
Remarks: TEC route CSTP9
Altitude:
(Current/Filed)
6,000ft
Speed:
(Current/Filed)
110kts
Departed: 02-Oct-20 10:46 AM
Arrived: 02-Oct-20 11:26 AM
Distance/Time
Traveled:
36nm/0:40
Distance/Time
To Go:
Arrived

Flight Plot

Page will automatically refresh every two minutes.


Map Options




Map Legend


Flown Route
Filed Route
Departure Airport
Arrival Airport
Navaid (VOR, NDB)
Fix

Horizontal Profiles

Position Reports

Time Latitude Longitude Heading Altitude Ground
Speed
02-Oct-20 10:32 33.671191 -117.868026 211 61ft 0kts
02-Oct-20 10:33 33.671191 -117.868026 211 61ft 0kts
02-Oct-20 10:34 33.671191 -117.868026 211 61ft 0kts
02-Oct-20 10:35 33.671191 -117.868026 211 61ft 0kts
02-Oct-20 10:36 33.671191 -117.868026 211 61ft 0kts
02-Oct-20 10:37 33.671191 -117.868026 211 61ft 0kts
02-Oct-20 10:38 33.671191 -117.868026 211 61ft 0kts
02-Oct-20 10:39 33.671191 -117.868026 211 61ft 0kts
02-Oct-20 10:40 33.671191 -117.868026 211 61ft 0kts
02-Oct-20 10:41 33.671110 -117.868103 233 61ft 2kts
02-Oct-20 10:42 33.675083 -117.866484 27 61ft 19kts
02-Oct-20 10:43 33.679962 -117.863637 297 61ft 0kts
02-Oct-20 10:44 33.679962 -117.863637 297 61ft 0kts
02-Oct-20 10:45 33.671623 -117.869629 211 219ft 88kts
02-Oct-20 10:46 33.653784 -117.889432 226 1141ft 88kts
02-Oct-20 10:47 33.637157 -117.912051 225 2004ft 96kts
02-Oct-20 10:48 33.613903 -117.941251 227 2187ft 123kts
02-Oct-20 10:49 33.592814 -117.970325 226 2936ft 110kts
02-Oct-20 10:50 33.593630 -117.997878 343 3649ft 109kts
02-Oct-20 10:51 33.622637 -118.007072 345 4224ft 117kts
02-Oct-20 10:53 33.654326 -118.017123 345 4741ft 113kts
02-Oct-20 10:54 33.683981 -118.026537 345 5356ft 109kts
02-Oct-20 10:55 33.713449 -118.035274 346 5935ft 109kts
02-Oct-20 10:56 33.746804 -118.044767 346 5983ft 133kts
02-Oct-20 10:57 33.781422 -118.047554 47 5982ft 130kts
02-Oct-20 10:58 33.795668 -118.007425 72 5981ft 130kts
02-Oct-20 10:59 33.806530 -117.966254 72 5981ft 130kts
02-Oct-20 11:00 33.817531 -117.924548 72 5981ft 130kts
02-Oct-20 11:01 33.828521 -117.882894 72 5981ft 130kts
02-Oct-20 11:02 33.839555 -117.841089 72 5981ft 130kts
02-Oct-20 11:03 33.850518 -117.799554 72 5981ft 128kts
02-Oct-20 11:04 33.877667 -117.778486 357 5981ft 126kts
02-Oct-20 11:05 33.912719 -117.781762 355 5981ft 126kts
02-Oct-20 11:06 33.947702 -117.784843 356 5981ft 126kts
02-Oct-20 11:06 33.976769 -117.785540 359 6015ft 124kts
02-Oct-20 11:08 34.010753 -117.802176 295 6019ft 125kts
02-Oct-20 11:09 34.024700 -117.840859 292 6018ft 126kts
02-Oct-20 11:10 34.037455 -117.880277 290 6018ft 126kts
02-Oct-20 11:11 34.049510 -117.920213 290 6018ft 126kts
02-Oct-20 11:11 34.059499 -117.953294 290 6018ft 126kts
02-Oct-20 11:12 34.071498 -117.993016 290 6018ft 126kts
02-Oct-20 11:14 34.085475 -118.039267 290 6018ft 126kts
02-Oct-20 11:14 34.095511 -118.072462 290 6018ft 126kts
02-Oct-20 11:15 34.107516 -118.112172 289 6018ft 126kts
02-Oct-20 11:16 34.108625 -118.154957 273 5469ft 121kts
02-Oct-20 11:17 34.108798 -118.194422 269 4901ft 116kts
02-Oct-20 11:18 34.108246 -118.233314 269 4328ft 115kts
02-Oct-20 11:19 34.101889 -118.270975 254 3764ft 115kts
02-Oct-20 11:20 34.093093 -118.308115 254 3208ft 114kts
02-Oct-20 11:21 34.084757 -118.343288 254 3033ft 108kts
02-Oct-20 11:22 34.071761 -118.381749 252 2601ft 124kts
02-Oct-20 11:23 34.048667 -118.414377 227 1699ft 125kts
02-Oct-20 11:24 34.025404 -118.439918 224 527ft 86kts
02-Oct-20 11:25 34.014795 -118.452536 235 136ft 15kts
02-Oct-20 11:26 34.016709 -118.452287 288 143ft 6kts

Navigation Log

Ident Type
Flight plan parsing failed, navigation log unavailable